createdAt,value
2022-11-26T00:00:27.363Z,9.20
2022-11-26T00:01:27.358Z,9.18
2022-11-26T00:02:27.485Z,9.23
2022-11-26T00:03:27.379Z,9.21
2022-11-26T00:04:27.341Z,9.23
2022-11-26T00:05:27.351Z,9.20
2022-11-26T00:06:27.349Z,9.20
2022-11-26T00:07:27.396Z,9.20
2022-11-26T00:08:27.334Z,9.15
2022-11-26T00:09:27.318Z,9.17
2022-11-26T00:10:27.339Z,9.17
2022-11-26T00:11:27.319Z,9.20
2022-11-26T00:12:27.346Z,9.17
2022-11-26T00:13:27.350Z,9.20
2022-11-26T00:14:27.306Z,9.13
2022-11-26T00:15:27.312Z,9.21
2022-11-26T00:16:27.349Z,9.14
2022-11-26T00:17:27.314Z,9.15
2022-11-26T00:18:27.308Z,9.17
2022-11-26T00:19:27.311Z,9.20
2022-11-26T00:20:27.306Z,9.17
2022-11-26T00:21:27.304Z,9.17
2022-11-26T00:22:27.324Z,9.18
2022-11-26T00:23:27.297Z,9.20
2022-11-26T00:24:27.294Z,9.17
2022-11-26T00:25:27.305Z,9.15
2022-11-26T00:26:27.296Z,9.20
2022-11-26T00:27:27.288Z,9.21
2022-11-26T00:28:27.303Z,9.15
2022-11-26T00:29:27.298Z,9.21
2022-11-26T00:30:27.291Z,9.20
2022-11-26T00:31:27.295Z,9.15
2022-11-26T00:32:27.290Z,9.21
2022-11-26T00:33:27.302Z,9.17
2022-11-26T00:34:27.279Z,9.17
2022-11-26T00:35:27.283Z,9.20
2022-11-26T00:36:27.261Z,9.17
2022-11-26T00:37:27.263Z,9.15
2022-11-26T00:38:27.257Z,9.18
2022-11-26T00:39:27.283Z,9.15
2022-11-26T00:40:27.249Z,9.17
2022-11-26T00:41:27.250Z,9.17
2022-11-26T00:42:27.257Z,9.20
2022-11-26T00:43:27.257Z,9.20
2022-11-26T00:44:27.254Z,9.18
2022-11-26T00:45:27.324Z,9.20
2022-11-26T00:46:27.246Z,9.28
2022-11-26T00:47:27.243Z,9.21
2022-11-26T00:48:27.230Z,9.23
2022-11-26T00:49:27.242Z,9.20
2022-11-26T00:50:27.252Z,9.20
2022-11-26T00:51:27.225Z,9.14
2022-11-26T00:52:27.256Z,9.17
2022-11-26T00:53:27.232Z,9.23
2022-11-26T00:54:27.234Z,9.20
2022-11-26T00:55:27.221Z,9.15
2022-11-26T00:56:27.216Z,9.18
2022-11-26T00:57:27.219Z,9.28
2022-11-26T00:58:27.252Z,9.20
2022-11-26T00:59:27.221Z,9.17
2022-11-26T01:00:27.210Z,9.18
2022-11-26T01:01:27.237Z,9.21
2022-11-26T01:02:27.310Z,9.20
2022-11-26T01:03:27.211Z,9.23
2022-11-26T01:04:27.230Z,9.17
2022-11-26T01:05:27.203Z,9.24
2022-11-26T01:06:27.214Z,9.28
2022-11-26T01:07:27.344Z,9.23
2022-11-26T01:08:27.200Z,9.21
2022-11-26T01:09:27.185Z,9.29
2022-11-26T01:10:27.199Z,9.28
2022-11-26T01:11:27.198Z,9.24
2022-11-26T01:12:27.191Z,9.26
2022-11-26T01:13:27.195Z,9.23
2022-11-26T01:14:27.191Z,9.28
2022-11-26T01:15:27.185Z,9.20
2022-11-26T01:16:27.295Z,9.31
2022-11-26T01:17:27.187Z,9.17
2022-11-26T01:18:27.170Z,9.20
2022-11-26T01:19:27.170Z,9.28
2022-11-26T01:20:27.176Z,9.17
2022-11-26T01:21:27.163Z,9.21
2022-11-26T01:22:27.191Z,9.28
2022-11-26T01:23:27.160Z,9.23
2022-11-26T01:24:27.156Z,9.26
2022-11-26T01:25:27.174Z,9.24
2022-11-26T01:26:27.152Z,9.21
2022-11-26T01:27:27.150Z,9.29
2022-11-26T01:28:27.176Z,9.31
2022-11-26T01:29:27.171Z,9.26
2022-11-26T01:30:27.159Z,9.26
2022-11-26T01:31:27.192Z,9.23
2022-11-26T01:32:29.564Z,9.14
2022-11-26T01:33:27.146Z,9.17
2022-11-26T01:34:27.182Z,9.23
2022-11-26T01:35:27.134Z,9.33
2022-11-26T01:36:27.133Z,9.26
2022-11-26T01:37:27.139Z,9.23
2022-11-26T01:38:27.140Z,9.31
2022-11-26T01:39:27.137Z,9.20
2022-11-26T01:40:27.130Z,9.33
2022-11-26T01:41:27.148Z,9.11
2022-11-26T01:42:27.129Z,9.24
2022-11-26T01:43:27.116Z,9.23
2022-11-26T01:44:27.124Z,9.26
2022-11-26T01:45:27.136Z,9.29
2022-11-26T01:46:27.120Z,9.23
2022-11-26T01:47:27.102Z,9.29
2022-11-26T01:48:27.129Z,9.28
2022-11-26T01:49:27.121Z,9.31
2022-11-26T01:50:27.105Z,9.24
2022-11-26T01:51:27.117Z,9.26
2022-11-26T01:52:27.108Z,9.24
2022-11-26T01:53:27.092Z,9.26
2022-11-26T01:54:27.092Z,9.26
2022-11-26T01:55:27.117Z,9.32
2022-11-26T01:56:27.096Z,9.23
2022-11-26T01:57:27.087Z,9.31
2022-11-26T01:58:27.084Z,9.26
2022-11-26T01:59:27.090Z,9.23
2022-11-26T02:00:27.101Z,9.26
2022-11-26T02:01:27.141Z,9.29
2022-11-26T02:02:27.200Z,9.23
2022-11-26T02:03:27.088Z,9.29
2022-11-26T02:04:27.083Z,9.31
2022-11-26T02:05:27.077Z,9.33
2022-11-26T02:06:27.076Z,9.35
2022-11-26T02:07:27.093Z,9.38
2022-11-26T02:08:27.064Z,9.29
2022-11-26T02:09:27.092Z,9.24
2022-11-26T02:10:27.069Z,9.35
2022-11-26T02:11:27.095Z,9.29
2022-11-26T02:12:27.067Z,9.32
2022-11-26T02:13:27.111Z,9.35
2022-11-26T02:14:27.076Z,9.38
2022-11-26T02:15:27.058Z,9.33
2022-11-26T02:16:27.080Z,9.36
2022-11-26T02:17:27.085Z,9.31
2022-11-26T02:18:27.053Z,9.26
2022-11-26T02:19:27.046Z,9.29
2022-11-26T02:20:27.040Z,9.21
2022-11-26T02:21:27.033Z,9.33
2022-11-26T02:22:27.075Z,9.31
2022-11-26T02:23:27.029Z,9.31
2022-11-26T02:24:27.043Z,9.33
2022-11-26T02:25:27.027Z,9.24
2022-11-26T02:26:27.022Z,9.40
2022-11-26T02:27:27.032Z,9.36
2022-11-26T02:28:27.043Z,9.24
2022-11-26T02:29:27.023Z,9.32
2022-11-26T02:30:27.032Z,9.28
2022-11-26T02:31:27.084Z,9.32
2022-11-26T02:32:27.010Z,9.35
2022-11-26T02:33:27.033Z,9.40
2022-11-26T02:34:27.021Z,9.31
2022-11-26T02:35:27.025Z,9.33
2022-11-26T02:36:27.013Z,9.26
2022-11-26T02:37:26.998Z,9.36
2022-11-26T02:38:27.004Z,9.33
2022-11-26T02:39:26.994Z,9.35
2022-11-26T02:40:27.009Z,9.21
2022-11-26T02:41:27.011Z,9.39
2022-11-26T02:42:26.994Z,9.32
2022-11-26T02:43:26.990Z,9.29
2022-11-26T02:44:27.010Z,9.23
2022-11-26T02:45:27.072Z,9.26
2022-11-26T02:46:26.994Z,9.35
2022-11-26T02:47:26.992Z,9.36
2022-11-26T02:48:26.986Z,9.33
2022-11-26T02:49:26.976Z,9.36
2022-11-26T02:50:26.990Z,9.29
2022-11-26T02:51:30.754Z,9.28
2022-11-26T02:52:26.988Z,9.38
2022-11-26T02:53:26.962Z,9.31
2022-11-26T02:54:26.965Z,9.32
2022-11-26T02:55:26.959Z,9.35
2022-11-26T02:56:26.990Z,9.31
2022-11-26T02:57:26.963Z,9.36
2022-11-26T02:58:26.959Z,9.33
2022-11-26T02:59:26.963Z,9.39
2022-11-26T03:00:26.955Z,9.36
2022-11-26T03:01:27.044Z,9.33
2022-11-26T03:02:26.946Z,9.38
2022-11-26T03:03:26.961Z,9.40
2022-11-26T03:04:27.044Z,9.32
2022-11-26T03:05:26.938Z,9.36
2022-11-26T03:06:26.948Z,9.35
2022-11-26T03:07:27.020Z,9.35
2022-11-26T03:08:26.931Z,9.36
2022-11-26T03:09:26.934Z,9.35
2022-11-26T03:10:26.930Z,9.31
2022-11-26T03:11:26.984Z,9.36
2022-11-26T03:12:26.933Z,9.39
2022-11-26T03:13:26.943Z,9.33
2022-11-26T03:14:26.926Z,9.40
2022-11-26T03:15:26.939Z,9.40
2022-11-26T03:16:27.037Z,9.36
2022-11-26T03:17:26.932Z,9.36
2022-11-26T03:18:26.937Z,9.36
2022-11-26T03:19:26.927Z,9.39
2022-11-26T03:20:26.911Z,9.38
2022-11-26T03:21:26.913Z,9.39
2022-11-26T03:22:26.932Z,9.39
2022-11-26T03:23:26.911Z,9.36
2022-11-26T03:24:26.902Z,9.39
2022-11-26T03:25:26.909Z,9.38
2022-11-26T03:26:26.903Z,9.35
2022-11-26T03:27:26.890Z,9.39
2022-11-26T03:28:26.912Z,9.31
2022-11-26T03:29:26.905Z,9.38
2022-11-26T03:30:26.891Z,9.38
2022-11-26T03:31:26.960Z,9.38
2022-11-26T03:32:26.897Z,9.42
2022-11-26T03:33:26.898Z,9.38
2022-11-26T03:34:26.907Z,9.38
2022-11-26T03:35:26.879Z,9.42
2022-11-26T03:36:26.876Z,9.46
2022-11-26T03:37:26.883Z,9.38
2022-11-26T03:38:26.874Z,9.39
2022-11-26T03:39:26.866Z,9.40
2022-11-26T03:40:26.878Z,9.40
2022-11-26T03:41:26.870Z,9.31
2022-11-26T03:42:26.862Z,9.31
2022-11-26T03:43:26.859Z,9.40
2022-11-26T03:44:26.865Z,9.40
2022-11-26T03:45:26.941Z,9.42
2022-11-26T03:46:26.871Z,9.31
2022-11-26T03:47:26.857Z,9.36
2022-11-26T03:48:26.846Z,9.39
2022-11-26T03:49:26.859Z,9.38
2022-11-26T03:50:26.871Z,9.36
2022-11-26T03:51:26.842Z,9.32
2022-11-26T03:52:26.856Z,9.43
2022-11-26T03:53:26.841Z,9.40
2022-11-26T03:54:26.862Z,9.43
2022-11-26T03:55:26.842Z,9.38
2022-11-26T03:56:26.876Z,9.46
2022-11-26T03:57:26.843Z,9.43
2022-11-26T03:58:26.829Z,9.43
2022-11-26T03:59:26.840Z,9.43
2022-11-26T04:00:26.822Z,9.43
2022-11-26T04:01:26.889Z,9.40
2022-11-26T04:02:26.841Z,9.47
2022-11-26T04:03:26.877Z,9.46
2022-11-26T04:04:26.818Z,9.47
2022-11-26T04:05:26.836Z,9.43
2022-11-26T04:06:26.826Z,9.50
2022-11-26T04:07:26.878Z,9.43
2022-11-26T04:08:26.813Z,9.47
2022-11-26T04:09:26.803Z,9.42
2022-11-26T04:10:26.818Z,9.46
2022-11-26T04:11:26.816Z,9.47
2022-11-26T04:12:26.798Z,9.51
2022-11-26T04:13:26.811Z,9.51
2022-11-26T04:14:26.795Z,9.39
2022-11-26T04:15:26.803Z,9.48
2022-11-26T04:16:26.872Z,9.40
2022-11-26T04:17:26.806Z,9.39
2022-11-26T04:18:26.788Z,9.47
2022-11-26T04:19:26.783Z,9.46
2022-11-26T04:20:26.785Z,9.46
2022-11-26T04:21:26.779Z,9.48
2022-11-26T04:22:26.816Z,9.48
2022-11-26T04:23:26.785Z,9.46
2022-11-26T04:24:26.773Z,9.46
2022-11-26T04:25:26.789Z,9.50
2022-11-26T04:26:26.779Z,9.47
2022-11-26T04:27:26.774Z,9.42
2022-11-26T04:28:26.794Z,9.50
2022-11-26T04:29:26.788Z,9.46
2022-11-26T04:30:27.557Z,9.51
2022-11-26T04:31:26.821Z,9.53
2022-11-26T04:32:26.774Z,9.42
2022-11-26T04:33:26.786Z,9.47
2022-11-26T04:34:26.762Z,9.42
2022-11-26T04:35:26.751Z,9.47
2022-11-26T04:36:26.764Z,9.47
2022-11-26T04:37:26.762Z,9.47
2022-11-26T04:38:26.759Z,9.46
2022-11-26T04:39:26.757Z,9.46
2022-11-26T04:40:26.759Z,9.51
2022-11-26T04:41:26.737Z,9.43
2022-11-26T04:42:26.751Z,9.47
2022-11-26T04:43:26.747Z,9.50
2022-11-26T04:44:26.743Z,9.47
2022-11-26T04:45:26.774Z,9.46
2022-11-26T04:46:26.741Z,9.47
2022-11-26T04:47:26.736Z,9.43
2022-11-26T04:48:26.731Z,9.47
2022-11-26T04:49:26.752Z,9.47
2022-11-26T04:50:26.726Z,9.48
2022-11-26T04:51:26.764Z,9.53
2022-11-26T04:52:26.726Z,9.42
2022-11-26T04:53:26.710Z,9.50
2022-11-26T04:54:26.731Z,9.43
2022-11-26T04:55:26.716Z,9.47
2022-11-26T04:56:26.710Z,9.56
2022-11-26T04:57:26.755Z,9.46
2022-11-26T04:58:26.720Z,9.56
2022-11-26T04:59:26.719Z,9.50
2022-11-26T05:00:26.706Z,9.42
2022-11-26T05:01:26.747Z,9.56
2022-11-26T05:02:26.713Z,9.54
2022-11-26T05:03:26.693Z,9.54
2022-11-26T05:04:26.688Z,9.50
2022-11-26T05:05:26.704Z,9.56
2022-11-26T05:06:26.695Z,9.43
2022-11-26T05:07:26.738Z,9.53
2022-11-26T05:08:26.710Z,9.58
2022-11-26T05:09:26.700Z,9.56
2022-11-26T05:10:26.679Z,9.58
2022-11-26T05:11:26.672Z,9.51
2022-11-26T05:12:26.673Z,9.53
2022-11-26T05:13:26.683Z,9.57
2022-11-26T05:14:26.697Z,9.53
2022-11-26T05:15:26.664Z,9.50
2022-11-26T05:16:26.694Z,9.53
2022-11-26T05:17:26.661Z,9.47
2022-11-26T05:18:26.660Z,9.54
2022-11-26T05:19:26.657Z,9.54
2022-11-26T05:20:26.675Z,9.51
2022-11-26T05:21:26.670Z,9.51
2022-11-26T05:22:26.665Z,9.56
2022-11-26T05:23:26.654Z,9.57
2022-11-26T05:24:26.654Z,9.50
2022-11-26T05:25:26.674Z,9.53
2022-11-26T05:26:26.648Z,9.50
2022-11-26T05:27:26.641Z,9.56
2022-11-26T05:28:26.642Z,9.54
2022-11-26T05:29:26.672Z,9.54
2022-11-26T05:30:26.661Z,9.54
2022-11-26T05:31:26.762Z,9.54
2022-11-26T05:32:26.643Z,9.53
2022-11-26T05:33:26.639Z,9.57
2022-11-26T05:34:26.633Z,9.50
2022-11-26T05:35:26.635Z,9.56
2022-11-26T05:36:26.641Z,9.53
2022-11-26T05:37:26.635Z,9.57
2022-11-26T05:38:26.623Z,9.58
2022-11-26T05:39:26.702Z,9.51
2022-11-26T05:40:26.642Z,9.53
2022-11-26T05:41:26.640Z,9.51
2022-11-26T05:42:26.715Z,9.60
2022-11-26T05:43:26.613Z,9.57
2022-11-26T05:44:26.620Z,9.54
2022-11-26T05:45:26.665Z,9.56
2022-11-26T05:46:26.616Z,9.51
2022-11-26T05:47:26.726Z,9.57
2022-11-26T05:48:26.618Z,9.53
2022-11-26T05:49:26.600Z,9.54
2022-11-26T05:50:26.600Z,9.50
2022-11-26T05:51:26.595Z,9.50
2022-11-26T05:52:26.584Z,9.51
2022-11-26T05:53:26.603Z,9.56
2022-11-26T05:54:26.587Z,9.58
2022-11-26T05:55:26.582Z,9.54
2022-11-26T05:56:26.597Z,9.54
2022-11-26T05:57:26.591Z,9.57
2022-11-26T05:58:26.575Z,9.58
2022-11-26T05:59:26.584Z,9.54
2022-11-26T06:00:26.573Z,9.58
2022-11-26T06:01:26.575Z,9.54
2022-11-26T06:02:26.643Z,9.54
2022-11-26T06:03:26.632Z,9.51
2022-11-26T06:04:26.561Z,9.58
2022-11-26T06:05:26.565Z,9.54
2022-11-26T06:06:26.559Z,9.56
2022-11-26T06:07:26.577Z,9.53
2022-11-26T06:08:26.575Z,9.58
2022-11-26T06:09:26.565Z,9.56
2022-11-26T06:10:26.559Z,9.54
2022-11-26T06:11:26.547Z,9.56
2022-11-26T06:12:26.578Z,9.50
2022-11-26T06:13:26.555Z,9.50
2022-11-26T06:14:26.538Z,9.51
2022-11-26T06:15:26.548Z,9.51
2022-11-26T06:16:26.592Z,9.56
2022-11-26T06:17:26.554Z,9.64
2022-11-26T06:18:26.543Z,9.64
2022-11-26T06:19:26.530Z,9.68
2022-11-26T06:20:26.526Z,9.74
2022-11-26T06:21:26.529Z,9.61
2022-11-26T06:22:26.552Z,9.61
2022-11-26T06:23:26.544Z,9.65
2022-11-26T06:24:26.539Z,9.69
2022-11-26T06:25:26.526Z,9.68
2022-11-26T06:26:26.514Z,9.65
2022-11-26T06:27:26.530Z,9.65
2022-11-26T06:28:26.512Z,9.64
2022-11-26T06:29:28.283Z,9.65
2022-11-26T06:30:26.519Z,9.65
2022-11-26T06:31:26.540Z,9.66
2022-11-26T06:32:26.553Z,9.64
2022-11-26T06:33:26.508Z,9.65
2022-11-26T06:34:26.495Z,9.69
2022-11-26T06:35:26.501Z,9.66
2022-11-26T06:36:26.512Z,9.53
2022-11-26T06:37:26.495Z,9.57
2022-11-26T06:38:26.502Z,9.56
2022-11-26T06:39:26.487Z,9.65
2022-11-26T06:40:26.490Z,9.56
2022-11-26T06:41:26.494Z,9.64
2022-11-26T06:42:26.478Z,9.47
2022-11-26T06:43:26.491Z,9.65
2022-11-26T06:44:26.522Z,9.56
2022-11-26T06:45:26.571Z,9.60
2022-11-26T06:46:26.482Z,9.57
2022-11-26T06:47:26.483Z,9.66
2022-11-26T06:48:26.508Z,9.57
2022-11-26T06:49:26.477Z,9.53
2022-11-26T06:50:26.480Z,9.56
2022-11-26T06:51:26.482Z,9.54
2022-11-26T06:52:26.503Z,9.54
2022-11-26T06:53:26.494Z,9.51
2022-11-26T06:54:26.467Z,9.56
2022-11-26T06:55:26.461Z,9.60
2022-11-26T06:56:26.461Z,9.53
2022-11-26T06:57:26.463Z,9.57
2022-11-26T06:58:26.471Z,9.53
2022-11-26T06:59:26.439Z,9.51
2022-11-26T07:00:26.496Z,9.60
2022-11-26T07:01:26.593Z,9.54
2022-11-26T07:02:26.513Z,9.53
2022-11-26T07:03:31.887Z,9.54
2022-11-26T07:04:26.484Z,9.56
2022-11-26T07:05:26.460Z,9.54
2022-11-26T07:06:26.443Z,9.66
2022-11-26T07:07:26.501Z,9.54
2022-11-26T07:08:26.434Z,9.64
2022-11-26T07:09:26.460Z,9.57
2022-11-26T07:10:26.426Z,9.64
2022-11-26T07:11:26.431Z,9.61
2022-11-26T07:12:26.412Z,9.54
2022-11-26T07:13:26.410Z,9.54
2022-11-26T07:14:26.431Z,9.56
2022-11-26T07:15:26.418Z,9.66
2022-11-26T07:16:26.497Z,9.66
2022-11-26T07:17:26.428Z,9.61
2022-11-26T07:18:26.406Z,9.61
2022-11-26T07:19:26.399Z,9.61
2022-11-26T07:20:26.396Z,9.66
2022-11-26T07:21:26.409Z,9.68
2022-11-26T07:22:26.404Z,9.64
2022-11-26T07:23:26.406Z,9.61
2022-11-26T07:24:26.430Z,9.68
2022-11-26T07:25:26.390Z,9.66
2022-11-26T07:26:26.426Z,9.61
2022-11-26T07:27:26.407Z,9.66
2022-11-26T07:28:26.379Z,9.54
2022-11-26T07:29:26.392Z,9.60
2022-11-26T07:30:26.383Z,9.51
2022-11-26T07:31:26.424Z,9.56
2022-11-26T07:32:26.426Z,9.60
2022-11-26T07:33:26.381Z,9.54
2022-11-26T07:34:26.382Z,9.65
2022-11-26T07:35:26.384Z,9.54
2022-11-26T07:36:26.408Z,9.64
2022-11-26T07:37:26.395Z,9.56
2022-11-26T07:38:26.365Z,9.64
2022-11-26T07:39:26.371Z,9.66
2022-11-26T07:40:26.355Z,9.61
2022-11-26T07:41:26.387Z,9.66
2022-11-26T07:42:26.354Z,9.64
2022-11-26T07:43:26.365Z,9.68
2022-11-26T07:44:26.374Z,9.61
2022-11-26T07:45:26.362Z,9.66
2022-11-26T07:46:26.405Z,9.66
2022-11-26T07:47:26.376Z,9.65
2022-11-26T07:48:26.358Z,9.64
2022-11-26T07:49:26.364Z,9.65
2022-11-26T07:50:26.339Z,9.56
2022-11-26T07:51:26.345Z,9.66
2022-11-26T07:52:26.354Z,9.58
2022-11-26T07:53:26.333Z,9.64
2022-11-26T07:54:26.346Z,9.60
2022-11-26T07:55:26.336Z,9.65
2022-11-26T07:56:26.332Z,9.66
2022-11-26T07:57:26.335Z,9.66
2022-11-26T07:58:26.332Z,9.66
2022-11-26T07:59:26.330Z,9.64
2022-11-26T08:00:26.313Z,9.64
2022-11-26T08:01:26.365Z,9.60
2022-11-26T08:02:26.373Z,9.58
2022-11-26T08:03:26.313Z,9.65
2022-11-26T08:04:26.331Z,9.66
2022-11-26T08:05:26.304Z,9.60
2022-11-26T08:06:26.301Z,9.66
2022-11-26T08:07:29.466Z,9.64
2022-11-26T08:08:26.301Z,9.66
2022-11-26T08:09:26.316Z,9.69
2022-11-26T08:10:26.395Z,9.72
2022-11-26T08:11:26.308Z,9.61
2022-11-26T08:12:26.316Z,9.64
2022-11-26T08:13:26.309Z,9.60
2022-11-26T08:14:26.307Z,9.66
2022-11-26T08:15:26.297Z,9.71
2022-11-26T08:16:28.897Z,9.65
2022-11-26T08:17:26.386Z,9.65
2022-11-26T08:18:26.289Z,9.69
2022-11-26T08:19:26.288Z,9.66
2022-11-26T08:20:29.104Z,9.66
2022-11-26T08:21:26.281Z,9.66
2022-11-26T08:22:26.280Z,9.61
2022-11-26T08:23:26.283Z,9.66
2022-11-26T08:24:26.280Z,9.66
2022-11-26T08:25:26.278Z,9.66
2022-11-26T08:26:35.059Z,9.65
2022-11-26T08:27:26.256Z,9.66
2022-11-26T08:28:26.281Z,9.66
2022-11-26T08:29:26.275Z,9.69
2022-11-26T08:30:26.301Z,9.69
2022-11-26T08:31:26.280Z,9.68
2022-11-26T08:32:26.261Z,9.68
2022-11-26T08:33:26.260Z,9.64
2022-11-26T08:34:26.274Z,9.61
2022-11-26T08:35:44.391Z,9.61
2022-11-26T08:36:26.255Z,9.74
2022-11-26T08:37:26.255Z,9.72
2022-11-26T08:38:26.250Z,9.72
2022-11-26T08:39:26.232Z,9.75
2022-11-26T08:40:26.238Z,9.74
2022-11-26T08:41:26.226Z,9.79
2022-11-26T08:42:26.243Z,9.74
2022-11-26T08:43:45.097Z,9.78
2022-11-26T08:44:26.230Z,9.72
2022-11-26T08:45:26.231Z,9.83
2022-11-26T08:46:26.350Z,9.86
2022-11-26T08:47:26.221Z,9.76
2022-11-26T08:48:30.464Z,9.74
2022-11-26T08:49:26.218Z,9.79
2022-11-26T08:50:26.212Z,9.79
2022-11-26T08:51:26.228Z,9.87
2022-11-26T08:52:26.216Z,9.79
2022-11-26T08:53:26.267Z,9.89
2022-11-26T08:54:26.222Z,9.84
2022-11-26T08:55:27.093Z,9.84
2022-11-26T08:56:26.200Z,9.83
2022-11-26T08:57:26.210Z,9.83
2022-11-26T08:58:26.207Z,9.87
2022-11-26T08:59:26.212Z,9.87
2022-11-26T09:00:26.209Z,9.90
2022-11-26T09:01:26.246Z,9.94
2022-11-26T09:02:26.263Z,9.93
2022-11-26T09:03:26.277Z,9.94
2022-11-26T09:04:26.191Z,9.96
2022-11-26T09:05:26.201Z,9.93
2022-11-26T09:06:26.221Z,9.94
2022-11-26T09:07:26.237Z,10.05
2022-11-26T09:08:26.184Z,10.01
2022-11-26T09:09:26.176Z,9.97
2022-11-26T09:10:26.204Z,9.99
2022-11-26T09:11:26.184Z,10.01
2022-11-26T09:12:26.179Z,9.97
2022-11-26T09:13:26.202Z,10.01
2022-11-26T09:14:26.182Z,9.97
2022-11-26T09:15:26.187Z,9.94
2022-11-26T09:16:26.281Z,9.96
2022-11-26T09:17:26.159Z,9.90
2022-11-26T09:18:26.172Z,9.91
2022-11-26T09:19:26.158Z,9.94
2022-11-26T09:20:26.175Z,9.99
2022-11-26T09:21:26.169Z,9.93
2022-11-26T09:22:26.171Z,9.99
2022-11-26T09:23:26.158Z,9.96
2022-11-26T09:24:26.167Z,9.93
2022-11-26T09:25:26.155Z,10.02
2022-11-26T09:26:26.150Z,10.04
2022-11-26T09:27:26.145Z,9.96
2022-11-26T09:28:26.433Z,10.01
2022-11-26T09:29:26.150Z,10.05
2022-11-26T09:30:26.344Z,10.08
2022-11-26T09:31:26.166Z,10.08
2022-11-26T09:32:29.666Z,10.07
2022-11-26T09:33:27.113Z,10.04
2022-11-26T09:34:26.174Z,10.08
2022-11-26T09:35:26.133Z,10.07
2022-11-26T09:36:26.124Z,10.05
2022-11-26T09:37:26.151Z,10.07
2022-11-26T09:38:26.131Z,10.02
2022-11-26T09:39:26.131Z,10.07
2022-11-26T09:40:26.120Z,10.07
2022-11-26T09:41:26.144Z,10.01
2022-11-26T09:42:26.122Z,10.07
2022-11-26T09:43:26.140Z,10.11
2022-11-26T09:44:27.863Z,10.05
2022-11-26T09:45:26.137Z,10.07
2022-11-26T09:46:26.106Z,10.14
2022-11-26T09:47:26.132Z,10.18
2022-11-26T10:01:54.660Z,10.11
2022-11-26T10:02:54.607Z,10.09
2022-11-26T10:03:54.503Z,10.11
2022-11-26T10:04:54.604Z,10.02
2022-11-26T10:05:54.616Z,10.05
2022-11-26T10:06:54.556Z,10.04
2022-11-26T10:07:55.790Z,10.02
2022-11-26T10:08:54.580Z,10.09
2022-11-26T10:09:54.666Z,10.01
2022-11-26T10:10:54.642Z,10.05
2022-11-26T10:11:54.627Z,10.02
2022-11-26T10:13:17.459Z,10.07
2022-11-26T10:13:54.568Z,10.02
2022-11-26T10:14:54.587Z,10.07
2022-11-26T10:15:54.495Z,10.01
2022-11-26T10:16:53.863Z,10.04
2022-11-26T10:17:53.744Z,9.97
2022-11-26T10:18:54.646Z,9.99
2022-11-26T10:19:53.686Z,10.09
2022-11-26T10:20:53.680Z,10.01
2022-11-26T10:22:00.705Z,10.01
2022-11-26T10:22:57.094Z,9.99
2022-11-26T10:23:53.664Z,9.96
2022-11-26T10:24:53.653Z,9.99
2022-11-26T10:25:53.642Z,9.93
2022-11-26T10:26:53.669Z,10.01
2022-11-26T10:27:53.642Z,9.97
2022-11-26T10:28:53.647Z,10.01
2022-11-26T10:29:53.675Z,9.99
2022-11-26T10:30:53.666Z,9.97
2022-11-26T10:31:53.698Z,10.05
2022-11-26T10:32:53.674Z,10.01
2022-11-26T10:33:53.670Z,9.99
2022-11-26T10:34:53.697Z,9.93
2022-11-26T10:35:53.629Z,9.97
2022-11-26T10:36:53.690Z,9.94
2022-11-26T10:37:53.630Z,9.99
2022-11-26T10:38:53.630Z,9.97
2022-11-26T10:39:59.173Z,9.99
2022-11-26T10:40:53.631Z,9.96
2022-11-26T10:41:53.639Z,10.01
2022-11-26T10:42:53.640Z,9.89
2022-11-26T10:43:53.695Z,9.90
2022-11-26T10:44:53.718Z,9.86
2022-11-26T10:45:53.709Z,9.90
2022-11-26T10:46:53.732Z,9.96
2022-11-26T10:53:03.232Z,9.94
2022-11-26T10:54:03.393Z,9.89
2022-11-26T10:56:50.505Z,9.94
2022-11-26T10:57:50.728Z,9.89
2022-11-26T10:58:50.679Z,9.90
2022-11-26T10:59:50.184Z,9.90
2022-11-26T11:00:50.004Z,9.89
2022-11-26T11:01:51.712Z,9.89
2022-11-26T11:02:50.707Z,9.91
2022-11-26T11:04:49.905Z,9.93
2022-11-26T11:06:05.405Z,9.90
2022-11-26T11:06:50.322Z,9.94
2022-11-26T11:07:49.915Z,9.96
2022-11-26T11:08:49.915Z,9.91
2022-11-26T11:09:49.881Z,9.99
2022-11-26T11:11:02.979Z,10.02
2022-11-26T11:11:59.499Z,10.11
2022-11-26T11:12:49.950Z,10.05
2022-11-26T11:14:01.087Z,10.02
2022-11-26T11:14:59.995Z,10.15
2022-11-26T11:15:59.995Z,10.20
2022-11-26T11:17:01.112Z,10.17
2022-11-26T11:17:59.504Z,10.22
2022-11-26T11:20:32.638Z,10.23
2022-11-26T11:21:47.887Z,10.12
2022-11-26T11:24:56.500Z,10.26
2022-11-26T11:31:09.564Z,10.30
2022-11-26T11:36:32.873Z,10.34
2022-11-26T11:39:14.620Z,10.32
2022-11-26T11:40:29.273Z,10.33
2022-11-26T11:43:08.354Z,10.33
2022-11-26T11:46:02.549Z,10.30
2022-11-26T11:47:02.239Z,10.27
2022-11-26T11:48:02.350Z,10.40
2022-11-26T11:49:03.097Z,10.40
2022-11-26T11:50:03.168Z,10.32
2022-11-26T11:51:02.166Z,10.30
2022-11-26T11:52:02.173Z,10.38
2022-11-26T11:53:02.154Z,10.41
2022-11-26T11:54:02.325Z,10.47
2022-11-26T11:55:02.195Z,10.41
2022-11-26T11:56:02.873Z,10.33
2022-11-26T11:57:02.162Z,10.45
2022-11-26T11:58:02.187Z,10.34
2022-11-26T11:59:02.162Z,10.44
2022-11-26T12:00:02.184Z,10.41
2022-11-26T12:01:02.260Z,10.32
2022-11-26T12:02:02.213Z,10.29
2022-11-26T12:03:29.462Z,10.29
2022-11-26T12:04:02.270Z,10.30
2022-11-26T12:05:02.210Z,10.42
2022-11-26T12:06:02.157Z,10.32
2022-11-26T12:07:02.125Z,10.34
2022-11-26T12:08:02.133Z,10.44
2022-11-26T12:09:02.131Z,10.44
2022-11-26T12:10:02.123Z,10.41
2022-11-26T12:11:02.165Z,10.34
2022-11-26T12:12:02.158Z,10.34
2022-11-26T12:13:02.159Z,10.42
2022-11-26T12:14:02.154Z,10.36
2022-11-26T12:15:02.117Z,10.34
2022-11-26T12:16:02.143Z,10.52
2022-11-26T12:17:02.256Z,10.44
2022-11-26T12:18:02.134Z,10.36
2022-11-26T12:19:02.969Z,10.42
2022-11-26T12:20:02.205Z,10.44
2022-11-26T12:21:02.108Z,10.44
2022-11-26T12:22:02.109Z,10.30
2022-11-26T12:23:02.138Z,10.41
2022-11-26T12:24:02.127Z,10.32
2022-11-26T12:25:02.115Z,10.33
2022-11-26T12:26:02.087Z,10.33
2022-11-26T12:27:02.139Z,10.29
2022-11-26T12:28:02.095Z,10.33
2022-11-26T12:29:02.089Z,10.33
2022-11-26T12:30:02.090Z,10.27
2022-11-26T12:31:02.150Z,10.42
2022-11-26T12:32:17.000Z,10.27
2022-11-26T12:33:02.626Z,10.29
2022-11-26T12:34:08.190Z,10.27
2022-11-26T12:35:02.167Z,10.32
2022-11-26T12:36:02.919Z,10.29
2022-11-26T12:37:03.000Z,10.32
2022-11-26T12:38:02.125Z,10.42
2022-11-26T12:39:02.992Z,10.32
2022-11-26T12:40:02.065Z,10.30
2022-11-26T12:41:02.996Z,10.26
2022-11-26T12:42:02.084Z,10.41
2022-11-26T12:43:02.177Z,10.27
2022-11-26T12:44:02.174Z,10.29
2022-11-26T12:45:02.050Z,10.38
2022-11-26T12:46:02.150Z,10.44
2022-11-26T12:47:02.122Z,10.29
2022-11-26T12:48:02.050Z,10.30
2022-11-26T12:49:02.113Z,10.30
2022-11-26T12:50:02.117Z,10.18
2022-11-26T12:51:02.187Z,10.25
2022-11-26T12:52:02.076Z,10.26
2022-11-26T12:53:02.144Z,10.30
2022-11-26T12:54:02.027Z,10.22
2022-11-26T12:55:02.040Z,10.22
2022-11-26T12:56:02.038Z,10.32
2022-11-26T12:57:02.060Z,10.20
2022-11-26T12:58:02.088Z,10.27
2022-11-26T12:59:02.226Z,10.26
2022-11-26T13:00:02.244Z,10.27
2022-11-26T13:01:03.035Z,10.20
2022-11-26T13:02:03.148Z,10.17
2022-11-26T13:03:02.106Z,10.12
2022-11-26T13:04:36.115Z,10.12
2022-11-26T13:05:02.106Z,10.17
2022-11-26T13:08:40.567Z,10.02
2022-11-26T13:09:40.704Z,10.07
2022-11-26T13:10:40.400Z,10.01
2022-11-26T13:11:40.565Z,10.05
2022-11-26T13:12:40.387Z,10.02
2022-11-26T13:13:40.234Z,10.07
2022-11-26T13:14:40.569Z,9.97
2022-11-26T13:15:48.946Z,10.05
2022-11-26T13:16:39.819Z,10.07
2022-11-26T13:17:39.521Z,10.08
2022-11-26T13:18:39.954Z,10.05
2022-11-26T13:19:39.751Z,10.01
2022-11-26T13:20:39.485Z,10.04
2022-11-26T13:21:39.684Z,10.09
2022-11-26T13:22:39.514Z,10.05
2022-11-26T13:23:39.538Z,10.07
2022-11-26T13:24:39.827Z,10.07
2022-11-26T13:25:39.543Z,10.05
2022-11-26T13:26:39.667Z,10.08
2022-11-26T13:27:39.570Z,10.07
2022-11-26T13:28:39.541Z,10.11
2022-11-26T13:29:39.495Z,10.05
2022-11-26T13:30:39.474Z,10.01
2022-11-26T13:31:39.535Z,10.08
2022-11-26T13:32:39.477Z,10.05
2022-11-26T13:33:39.531Z,10.05
2022-11-26T13:34:39.847Z,9.96
2022-11-26T13:35:39.483Z,9.99
2022-11-26T13:36:39.460Z,9.97
2022-11-26T13:37:39.454Z,9.99
2022-11-26T13:38:39.499Z,9.94
2022-11-26T13:39:39.537Z,9.97
2022-11-26T13:40:39.512Z,9.99
2022-11-26T13:41:39.445Z,10.04
2022-11-26T13:42:39.475Z,9.99
2022-11-26T13:43:43.955Z,10.07
2022-11-26T13:44:40.478Z,9.99
2022-11-26T13:45:41.517Z,10.04
2022-11-26T13:46:39.473Z,9.99
2022-11-26T13:47:39.478Z,10.04
2022-11-26T13:48:39.456Z,9.96
2022-11-26T13:49:39.458Z,9.96
2022-11-26T13:50:39.427Z,9.99
2022-11-26T13:51:39.432Z,9.93
2022-11-26T13:52:39.441Z,9.90
2022-11-26T13:53:39.483Z,9.96
2022-11-26T13:54:39.761Z,9.96
2022-11-26T13:55:39.423Z,9.96